sensor_id;sensor_type;location;lat;lon;timestamp;pressure;altitude;pressure_sealevel;temperature;humidity
5877;BME280;2964;42.144;24.730;2022-07-29T00:06:41;147713.13;;;24.79;63.32
5877;BME280;2964;42.144;24.730;2022-07-29T00:09:08;147709.31;;;24.78;63.20
5877;BME280;2964;42.144;24.730;2022-07-29T00:14:57;147702.97;;;24.75;63.80
5877;BME280;2964;42.144;24.730;2022-07-29T00:20:27;147606.44;;;24.36;64.40
5877;BME280;2964;42.144;24.730;2022-07-29T00:22:55;147639.47;;;24.50;64.67
5877;BME280;2964;42.144;24.730;2022-07-29T00:25:37;147560.78;;;24.18;66.01
5877;BME280;2964;42.144;24.730;2022-07-29T00:28:20;147554.44;;;24.15;65.96
5877;BME280;2964;42.144;24.730;2022-07-29T00:34:46;147611.56;;;24.38;65.82
5877;BME280;2964;42.144;24.730;2022-07-29T00:37:30;147658.56;;;24.57;65.37
5877;BME280;2964;42.144;24.730;2022-07-29T00:40:34;147621.72;;;24.42;65.67
5877;BME280;2964;42.144;24.730;2022-07-29T00:43:01;147672.50;;;24.63;65.10
5877;BME280;2964;42.144;24.730;2022-07-29T01:06:14;147602.69;;;24.35;67.27
5877;BME280;2964;42.144;24.730;2022-07-29T01:08:42;147558.28;;;24.17;68.60
5877;BME280;2964;42.144;24.730;2022-07-29T01:11:09;147567.16;;;24.20;68.53
5877;BME280;2964;42.144;24.730;2022-07-29T01:13:36;147550.63;;;24.14;68.65
5877;BME280;2964;42.144;24.730;2022-07-29T01:16:09;147583.59;;;24.27;68.34
5877;BME280;2964;42.144;24.730;2022-07-29T01:18:39;147451.63;;;23.74;70.46
5877;BME280;2964;42.144;24.730;2022-07-29T01:21:23;147493.56;;;23.91;70.19
5877;BME280;2964;42.144;24.730;2022-07-29T01:24:07;147489.75;;;23.89;70.87
5877;BME280;2964;42.144;24.730;2022-07-29T01:26:42;147456.75;;;23.76;71.44
5877;BME280;2964;42.144;24.730;2022-07-29T01:29:16;147439.00;;;23.68;72.34
5877;BME280;2964;42.144;24.730;2022-07-29T01:31:48;147431.38;;;23.65;72.63
5877;BME280;2964;42.144;24.730;2022-07-29T01:34:21;147407.28;;;23.56;73.24
5877;BME280;2964;42.144;24.730;2022-07-29T01:36:55;147367.94;;;23.40;73.81
5877;BME280;2964;42.144;24.730;2022-07-29T01:39:30;147362.88;;;23.38;74.25
5877;BME280;2964;42.144;24.730;2022-07-29T01:42:04;147365.44;;;23.39;73.96
5877;BME280;2964;42.144;24.730;2022-07-29T01:44:37;147388.25;;;23.48;73.92
5877;BME280;2964;42.144;24.730;2022-07-29T01:47:12;147367.94;;;23.40;74.21
5877;BME280;2964;42.144;24.730;2022-07-29T01:49:54;147335.00;;;23.26;74.76
5877;BME280;2964;42.144;24.730;2022-07-29T01:52:26;147294.41;;;23.10;75.75
5877;BME280;2964;42.144;24.730;2022-07-29T01:54:57;147293.16;;;23.09;76.27
5877;BME280;2964;42.144;24.730;2022-07-29T01:57:26;147335.00;;;23.26;75.64
5877;BME280;2964;42.144;24.730;2022-07-29T01:59:56;147378.09;;;23.44;74.42
5877;BME280;2964;42.144;24.730;2022-07-29T02:02:26;147421.22;;;23.61;73.85
5877;BME280;2964;42.144;24.730;2022-07-29T02:04:54;147370.50;;;23.41;74.15
5877;BME280;2964;42.144;24.730;2022-07-29T02:07:23;147200.56;;;22.72;76.77
5877;BME280;2964;42.144;24.730;2022-07-29T02:09:51;147187.91;;;22.67;76.58
5877;BME280;2964;42.144;24.730;2022-07-29T02:12:20;147142.28;;;22.48;77.55
5877;BME280;2964;42.144;24.730;2022-07-29T02:14:51;147203.09;;;22.73;76.67
5877;BME280;2964;42.144;24.730;2022-07-29T02:17:23;147151.13;;;22.52;76.92
5877;BME280;2964;42.144;24.730;2022-07-29T02:19:52;147113.13;;;22.36;77.59
5877;BME280;2964;42.144;24.730;2022-07-29T02:22:23;147078.88;;;22.23;77.79
5877;BME280;2964;42.144;24.730;2022-07-29T02:24:51;147043.41;;;22.08;78.15
5877;BME280;2964;42.144;24.730;2022-07-29T02:27:19;147030.72;;;22.03;77.96
5877;BME280;2964;42.144;24.730;2022-07-29T02:29:47;147056.06;;;22.13;77.75
5877;BME280;2964;42.144;24.730;2022-07-29T02:32:15;147113.13;;;22.36;76.86
5877;BME280;2964;42.144;24.730;2022-07-29T02:34:45;147133.41;;;22.45;76.99
5877;BME280;2964;42.144;24.730;2022-07-29T02:37:14;147172.66;;;22.61;76.04
5877;BME280;2964;42.144;24.730;2022-07-29T02:39:43;147177.75;;;22.63;75.29
5877;BME280;2964;42.144;24.730;2022-07-29T02:42:14;147175.22;;;22.62;75.07
5877;BME280;2964;42.144;24.730;2022-07-29T02:44:42;147182.81;;;22.65;75.21
5877;BME280;2964;42.144;24.730;2022-07-29T02:47:13;147220.84;;;22.80;73.38
5877;BME280;2964;42.144;24.730;2022-07-29T02:49:51;147127.06;;;22.42;75.34
5877;BME280;2964;42.144;24.730;2022-07-29T02:52:22;147053.53;;;22.12;77.26
5877;BME280;2964;42.144;24.730;2022-07-29T02:54:54;147002.84;;;21.92;78.43
5877;BME280;2964;42.144;24.730;2022-07-29T02:57:29;147043.41;;;22.08;77.83
5877;BME280;2964;42.144;24.730;2022-07-29T03:00:01;147051.00;;;22.11;76.72
5877;BME280;2964;42.144;24.730;2022-07-29T03:02:33;147062.41;;;22.16;76.20
5877;BME280;2964;42.144;24.730;2022-07-29T03:05:03;147037.03;;;22.06;76.20
5877;BME280;2964;42.144;24.730;2022-07-29T03:07:31;146943.31;;;21.68;78.00
5877;BME280;2964;42.144;24.730;2022-07-29T03:09:59;146950.94;;;21.71;79.10
5877;BME280;2964;42.144;24.730;2022-07-29T03:12:26;146947.13;;;21.69;78.78
5877;BME280;2964;42.144;24.730;2022-07-29T03:14:54;146942.06;;;21.67;78.75
5877;BME280;2964;42.144;24.730;2022-07-29T03:17:22;147004.09;;;21.92;77.95
5877;BME280;2964;42.144;24.730;2022-07-29T03:19:49;147054.78;;;22.13;76.51
5877;BME280;2964;42.144;24.730;2022-07-29T03:22:17;147087.81;;;22.26;75.81
5877;BME280;2964;42.144;24.730;2022-07-29T03:24:44;147043.41;;;22.08;76.92
5877;BME280;2964;42.144;24.730;2022-07-29T03:27:11;146944.56;;;21.68;79.78
5877;BME280;2964;42.144;24.730;2022-07-29T03:29:38;146964.88;;;21.76;78.57
5877;BME280;2964;42.144;24.730;2022-07-29T03:32:05;146992.72;;;21.88;78.22
5877;BME280;2964;42.144;24.730;2022-07-29T03:34:32;147005.34;;;21.93;75.86
5877;BME280;2964;42.144;24.730;2022-07-29T03:36:59;146987.66;;;21.86;76.24
5877;BME280;2964;42.144;24.730;2022-07-29T03:39:29;147000.31;;;21.91;76.85
5877;BME280;2964;42.144;24.730;2022-07-29T03:41:59;146891.38;;;21.47;78.95
5877;BME280;2964;42.144;24.730;2022-07-29T03:44:27;146886.31;;;21.45;79.70
5877;BME280;2964;42.144;24.730;2022-07-29T03:46:55;146943.31;;;21.68;79.60
5877;BME280;2964;42.144;24.730;2022-07-29T03:49:24;146958.50;;;21.74;79.08
5877;BME280;2964;42.144;24.730;2022-07-29T03:51:52;147010.47;;;21.95;77.80
5877;BME280;2964;42.144;24.730;2022-07-29T03:54:19;146976.25;;;21.81;77.33
5877;BME280;2964;42.144;24.730;2022-07-29T03:56:48;147028.16;;;22.02;76.50
5877;BME280;2964;42.144;24.730;2022-07-29T03:59:17;146899.00;;;21.50;78.96
5877;BME280;2964;42.144;24.730;2022-07-29T04:01:45;146883.75;;;21.44;79.82
5877;BME280;2964;42.144;24.730;2022-07-29T04:04:12;146822.94;;;21.19;81.25
5877;BME280;2964;42.144;24.730;2022-07-29T04:06:40;146802.72;;;21.11;82.55
5877;BME280;2964;42.144;24.730;2022-07-29T04:09:07;146752.06;;;20.90;83.81
5877;BME280;2964;42.144;24.730;2022-07-29T04:11:34;146873.63;;;21.39;83.08
5877;BME280;2964;42.144;24.730;2022-07-29T04:14:03;146952.19;;;21.71;82.10
5877;BME280;2964;42.144;24.730;2022-07-29T04:16:30;147010.47;;;21.95;80.07
5877;BME280;2964;42.144;24.730;2022-07-29T04:18:57;146971.19;;;21.79;80.08
5877;BME280;2964;42.144;24.730;2022-07-29T04:21:24;146975.00;;;21.81;80.08
5877;BME280;2964;42.144;24.730;2022-07-29T04:23:51;146954.69;;;21.72;80.57
5877;BME280;2964;42.144;24.730;2022-07-29T04:26:19;147026.91;;;22.02;79.36
5877;BME280;2964;42.144;24.730;2022-07-29T04:28:48;147085.19;;;22.25;78.06
5877;BME280;2964;42.144;24.730;2022-07-29T04:31:16;147104.25;;;22.33;77.98
5877;BME280;2964;42.144;24.730;2022-07-29T04:33:43;147182.81;;;22.65;76.20
5877;BME280;2964;42.144;24.730;2022-07-29T04:36:10;147132.13;;;22.44;77.76
5877;BME280;2964;42.144;24.730;2022-07-29T04:38:38;147137.19;;;22.46;77.01
5877;BME280;2964;42.144;24.730;2022-07-29T04:41:05;147130.88;;;22.44;77.41
5877;BME280;2964;42.144;24.730;2022-07-29T04:43:33;147332.44;;;23.25;73.83
5877;BME280;2964;42.144;24.730;2022-07-29T04:46:01;147568.41;;;24.21;69.29
5877;BME280;2964;42.144;24.730;2022-07-29T04:48:29;147772.78;;;25.03;66.30
5877;BME280;2964;42.144;24.730;2022-07-29T04:50:56;147950.59;;;25.75;63.78
5877;BME280;2964;42.144;24.730;2022-07-29T04:53:23;148063.69;;;26.21;62.02
5877;BME280;2964;42.144;24.730;2022-07-29T04:55:50;148038.25;;;26.11;60.80
5877;BME280;2964;42.144;24.730;2022-07-29T04:58:17;148101.78;;;26.36;61.61
5877;BME280;2964;42.144;24.730;2022-07-29T05:00:44;148406.94;;;27.60;58.29
5877;BME280;2964;42.144;24.730;2022-07-29T05:03:11;148122.09;;;26.45;60.90
5877;BME280;2964;42.144;24.730;2022-07-29T05:05:39;148199.66;;;26.76;61.94
5877;BME280;2964;42.144;24.730;2022-07-29T05:08:06;148507.44;;;28.00;56.74
5877;BME280;2964;42.144;24.730;2022-07-29T05:10:33;148442.56;;;27.74;58.83
5877;BME280;2964;42.144;24.730;2022-07-29T05:13:04;148671.59;;;28.66;56.23
5877;BME280;2964;42.144;24.730;2022-07-29T05:15:30;148936.38;;;29.73;51.67
5877;BME280;2964;42.144;24.730;2022-07-29T05:18:00;149271.50;;;31.08;48.50
5877;BME280;2964;42.144;24.730;2022-07-29T05:20:27;149515.03;;;32.06;45.32
5877;BME280;2964;42.144;24.730;2022-07-29T05:22:56;149110.94;;;30.44;47.76
5877;BME280;2964;42.144;24.730;2022-07-29T05:25:23;149299.53;;;31.20;47.12
5877;BME280;2964;42.144;24.730;2022-07-29T05:27:50;149572.38;;;32.29;43.48
5877;BME280;2964;42.144;24.730;2022-07-29T05:30:17;149909.28;;;33.65;40.83
5877;BME280;2964;42.144;24.730;2022-07-29T05:32:44;150010.13;;;34.06;39.63
5877;BME280;2964;42.144;24.730;2022-07-29T05:35:11;149474.19;;;31.90;43.89
5877;BME280;2964;42.144;24.730;2022-07-29T05:37:38;149868.41;;;33.49;40.51
5877;BME280;2964;42.144;24.730;2022-07-29T05:40:07;149163.13;;;30.65;46.27
5877;BME280;2964;42.144;24.730;2022-07-29T05:42:34;149461.41;;;31.85;42.39
5877;BME280;2964;42.144;24.730;2022-07-29T05:45:02;149563.44;;;32.26;43.37
5877;BME280;2964;42.144;24.730;2022-07-29T05:47:29;149712.72;;;32.86;41.58
5877;BME280;2964;42.144;24.730;2022-07-29T05:49:56;150002.44;;;34.02;39.98
5877;BME280;2964;42.144;24.730;2022-07-29T05:52:25;149714.00;;;32.86;42.67
5877;BME280;2964;42.144;24.730;2022-07-29T05:54:52;149931.00;;;33.74;39.93
5877;BME280;2964;42.144;24.730;2022-07-29T05:57:23;149515.03;;;32.06;42.77
5877;BME280;2964;42.144;24.730;2022-07-29T05:59:50;150134.00;;;34.55;38.41
5877;BME280;2964;42.144;24.730;2022-07-29T06:02:17;150404.81;;;35.64;36.34
5877;BME280;2964;42.144;24.730;2022-07-29T06:04:44;150063.78;;;34.27;38.86
5877;BME280;2964;42.144;24.730;2022-07-29T06:07:11;150024.16;;;34.11;40.40
5877;BME280;2964;42.144;24.730;2022-07-29T06:09:37;149948.88;;;33.81;39.79
5877;BME280;2964;42.144;24.730;2022-07-29T06:12:04;150233.66;;;34.95;38.13
5877;BME280;2964;42.144;24.730;2022-07-29T06:14:32;150486.66;;;35.97;36.28
5877;BME280;2964;42.144;24.730;2022-07-29T06:17:00;150683.56;;;36.76;35.50
5877;BME280;2964;42.144;24.730;2022-07-29T06:19:27;150075.25;;;34.32;38.38
5877;BME280;2964;42.144;24.730;2022-07-29T06:21:54;150232.34;;;34.95;38.06
5877;BME280;2964;42.144;24.730;2022-07-29T06:24:20;149904.16;;;33.63;40.38
5877;BME280;2964;42.144;24.730;2022-07-29T06:26:47;150061.22;;;34.26;39.15
5877;BME280;2964;42.144;24.730;2022-07-29T06:29:14;150489.19;;;35.98;36.92
5877;BME280;2964;42.144;24.730;2022-07-29T06:31:42;150491.75;;;35.99;36.62
5877;BME280;2964;42.144;24.730;2022-07-29T06:34:09;150441.94;;;35.79;37.54
5877;BME280;2964;42.144;24.730;2022-07-29T06:36:36;150404.81;;;35.64;36.22
5877;BME280;2964;42.144;24.730;2022-07-29T06:39:04;150279.63;;;35.14;37.52
5877;BME280;2964;42.144;24.730;2022-07-29T06:41:32;150725.72;;;36.93;34.61
5877;BME280;2964;42.144;24.730;2022-07-29T06:43:59;150337.13;;;35.37;38.17
5877;BME280;2964;42.144;24.730;2022-07-29T06:46:25;150744.91;;;37.01;34.19
5877;BME280;2964;42.144;24.730;2022-07-29T06:48:54;150132.72;;;34.55;38.28
5877;BME280;2964;42.144;24.730;2022-07-29T06:51:21;149994.81;;;33.99;39.45
5877;BME280;2964;42.144;24.730;2022-07-29T06:53:48;150326.91;;;35.33;37.01
5877;BME280;2964;42.144;24.730;2022-07-29T06:56:15;150632.34;;;36.56;36.25
5877;BME280;2964;42.144;24.730;2022-07-29T06:58:42;151012.25;;;38.08;33.22
5877;BME280;2964;42.144;24.730;2022-07-29T07:01:09;150906.09;;;37.65;33.71
5877;BME280;2964;42.144;24.730;2022-07-29T07:03:36;150863.84;;;37.48;33.27
5877;BME280;2964;42.144;24.730;2022-07-29T07:06:04;149900.31;;;33.61;40.22
5877;BME280;2964;42.144;24.730;2022-07-29T07:08:31;150177.44;;;34.73;39.01
5877;BME280;2964;42.144;24.730;2022-07-29T07:10:57;150802.44;;;37.24;35.09
5877;BME280;2964;42.144;24.730;2022-07-29T07:13:25;150669.44;;;36.70;35.90
5877;BME280;2964;42.144;24.730;2022-07-29T07:15:51;150549.28;;;36.22;35.71
5877;BME280;2964;42.144;24.730;2022-07-29T07:18:18;150633.66;;;36.56;35.53
5877;BME280;2964;42.144;24.730;2022-07-29T07:20:45;150467.50;;;35.89;36.63
5877;BME280;2964;42.144;24.730;2022-07-29T07:23:14;150672.03;;;36.71;35.76
5877;BME280;2964;42.144;24.730;2022-07-29T07:25:40;151064.72;;;38.29;32.62
5877;BME280;2964;42.144;24.730;2022-07-29T07:28:07;150741.06;;;36.99;33.91
5877;BME280;2964;42.144;24.730;2022-07-29T07:30:34;150485.34;;;35.97;35.28
5877;BME280;2964;42.144;24.730;2022-07-29T07:33:01;150527.53;;;36.13;35.80
5877;BME280;2964;42.144;24.730;2022-07-29T07:35:27;150743.63;;;37.00;35.20
5877;BME280;2964;42.144;24.730;2022-07-29T07:37:54;150618.28;;;36.50;35.18
5877;BME280;2964;42.144;24.730;2022-07-29T07:40:23;150609.34;;;36.46;34.30
5877;BME280;2964;42.144;24.730;2022-07-29T07:42:50;151173.53;;;38.73;30.15
5877;BME280;2964;42.144;24.730;2022-07-29T07:45:17;150486.66;;;35.97;33.66
5877;BME280;2964;42.144;24.730;2022-07-29T07:47:43;150111.00;;;34.46;37.02
5877;BME280;2964;42.144;24.730;2022-07-29T07:50:11;150837.00;;;37.38;32.63
5877;BME280;2964;42.144;24.730;2022-07-29T07:52:46;150844.69;;;37.41;31.82
5877;BME280;2964;42.144;24.730;2022-07-29T07:55:13;150641.28;;;36.59;34.47
5877;BME280;2964;42.144;24.730;2022-07-29T07:57:42;150747.44;;;37.02;30.07
5877;BME280;2964;42.144;24.730;2022-07-29T08:00:09;150495.59;;;36.01;31.56
5877;BME280;2964;42.144;24.730;2022-07-29T08:02:37;150741.06;;;36.99;30.11
5877;BME280;2964;42.144;24.730;2022-07-29T08:05:05;150889.41;;;37.59;29.02
5877;BME280;2964;42.144;24.730;2022-07-29T08:07:32;150337.13;;;35.37;30.89
5877;BME280;2964;42.144;24.730;2022-07-29T08:09:58;150449.59;;;35.82;32.45
5877;BME280;2964;42.144;24.730;2022-07-29T08:12:25;150536.50;;;36.17;31.93
5877;BME280;2964;42.144;24.730;2022-07-29T08:14:53;150600.38;;;36.43;31.96
5877;BME280;2964;42.144;24.730;2022-07-29T08:17:20;150620.88;;;36.51;31.31
5877;BME280;2964;42.144;24.730;2022-07-29T08:19:47;150597.88;;;36.42;29.26
5877;BME280;2964;42.144;24.730;2022-07-29T08:22:15;150660.56;;;36.67;27.17
5877;BME280;2964;42.144;24.730;2022-07-29T08:24:42;150431.72;;;35.75;28.50
5877;BME280;2964;42.144;24.730;2022-07-29T08:27:18;150182.53;;;34.75;31.35
5877;BME280;2964;42.144;24.730;2022-07-29T08:29:46;150119.94;;;34.50;32.10
5877;BME280;2964;42.144;24.730;2022-07-29T08:32:14;150305.19;;;35.24;31.59
5877;BME280;2964;42.144;24.730;2022-07-29T08:34:41;150467.50;;;35.89;29.73
5877;BME280;2964;42.144;24.730;2022-07-29T08:37:12;150447.03;;;35.81;31.16
5877;BME280;2964;42.144;24.730;2022-07-29T08:39:39;150275.78;;;35.12;30.90
5877;BME280;2964;42.144;24.730;2022-07-29T08:42:06;150562.06;;;36.27;27.82
5877;BME280;2964;42.144;24.730;2022-07-29T08:44:35;150519.88;;;36.10;27.99
5877;BME280;2964;42.144;24.730;2022-07-29T08:47:02;150455.97;;;35.85;29.32
5877;BME280;2964;42.144;24.730;2022-07-29T08:49:33;150687.34;;;36.78;26.61
5877;BME280;2964;42.144;24.730;2022-07-29T08:52:00;150761.53;;;37.07;24.76
5877;BME280;2964;42.144;24.730;2022-07-29T08:54:27;150646.41;;;36.61;26.07
5877;BME280;2964;42.144;24.730;2022-07-29T08:56:54;150403.56;;;35.64;28.06
5877;BME280;2964;42.144;24.730;2022-07-29T08:59:24;150537.75;;;36.18;27.95
5877;BME280;2964;42.144;24.730;2022-07-29T09:01:53;150720.63;;;36.91;27.82
5877;BME280;2964;42.144;24.730;2022-07-29T09:04:20;150792.25;;;37.20;25.56
5877;BME280;2964;42.144;24.730;2022-07-29T09:06:51;150522.38;;;36.11;25.54
5877;BME280;2964;42.144;24.730;2022-07-29T09:09:18;150225.97;;;34.92;27.91
5877;BME280;2964;42.144;24.730;2022-07-29T09:11:45;150407.34;;;35.65;26.76
5877;BME280;2964;42.144;24.730;2022-07-29T09:14:12;150291.13;;;35.18;27.31
5877;BME280;2964;42.144;24.730;2022-07-29T09:16:47;150489.19;;;35.98;27.69
5877;BME280;2964;42.144;24.730;2022-07-29T09:19:22;150693.78;;;36.80;26.88
5877;BME280;2964;42.144;24.730;2022-07-29T09:21:51;150744.91;;;37.01;25.66
5877;BME280;2964;42.144;24.730;2022-07-29T09:24:26;150874.09;;;37.53;25.41
5877;BME280;2964;42.144;24.730;2022-07-29T09:26:53;150808.88;;;37.26;26.23
5877;BME280;2964;42.144;24.730;2022-07-29T09:29:23;150618.28;;;36.50;24.63
5877;BME280;2964;42.144;24.730;2022-07-29T09:31:51;150484.06;;;35.96;25.42
5877;BME280;2964;42.144;24.730;2022-07-29T09:34:22;150385.69;;;35.56;25.52
5877;BME280;2964;42.144;24.730;2022-07-29T09:36:51;150395.88;;;35.61;26.43
5877;BME280;2964;42.144;24.730;2022-07-29T09:39:28;150503.22;;;36.04;26.77
5877;BME280;2964;42.144;24.730;2022-07-29T09:41:56;150559.53;;;36.26;25.18
5877;BME280;2964;42.144;24.730;2022-07-29T09:44:25;150487.91;;;35.98;26.02
5877;BME280;2964;42.144;24.730;2022-07-29T09:46:56;150424.03;;;35.72;25.56
5877;BME280;2964;42.144;24.730;2022-07-29T09:49:24;150429.13;;;35.74;26.12
5877;BME280;2964;42.144;24.730;2022-07-29T09:52:04;150344.78;;;35.40;27.13
5877;BME280;2964;42.144;24.730;2022-07-29T09:54:31;150531.34;;;36.15;26.14
5877;BME280;2964;42.144;24.730;2022-07-29T09:57:02;150707.84;;;36.86;26.51
5877;BME280;2964;42.144;24.730;2022-07-29T09:59:29;150792.25;;;37.20;25.16
5877;BME280;2964;42.144;24.730;2022-07-29T10:01:56;150820.38;;;37.31;25.04
5877;BME280;2964;42.144;24.730;2022-07-29T10:04:23;150628.53;;;36.54;25.12
5877;BME280;2964;42.144;24.730;2022-07-29T10:06:57;150495.59;;;36.01;24.54
5877;BME280;2964;42.144;24.730;2022-07-29T10:09:26;150340.94;;;35.38;24.82
5877;BME280;2964;42.144;24.730;2022-07-29T10:12:04;150045.91;;;34.20;26.33
5877;BME280;2964;42.144;24.730;2022-07-29T10:14:33;149950.13;;;33.81;27.32
5877;BME280;2964;42.144;24.730;2022-07-29T10:17:01;149947.56;;;33.80;28.05
5877;BME280;2964;42.144;24.730;2022-07-29T10:19:28;149831.41;;;33.34;28.34
5877;BME280;2964;42.144;24.730;2022-07-29T10:21:57;149757.38;;;33.04;28.76
5877;BME280;2964;42.144;24.730;2022-07-29T10:24:26;149601.72;;;32.41;29.52
5877;BME280;2964;42.144;24.730;2022-07-29T10:26:54;149689.75;;;32.77;29.33
5877;BME280;2964;42.144;24.730;2022-07-29T10:29:22;149671.91;;;32.69;29.17
5877;BME280;2964;42.144;24.730;2022-07-29T10:32:05;149665.53;;;32.67;29.69
5877;BME280;2964;42.144;24.730;2022-07-29T10:34:49;149648.94;;;32.60;29.63
5877;BME280;2964;42.144;24.730;2022-07-29T10:37:22;149643.84;;;32.58;29.59
5877;BME280;2964;42.144;24.730;2022-07-29T10:40:00;149552.00;;;32.21;30.44
5877;BME280;2964;42.144;24.730;2022-07-29T10:42:52;149554.56;;;32.22;31.80
5877;BME280;2964;42.144;24.730;2022-07-29T10:45:20;149611.91;;;32.45;30.91
5877;BME280;2964;42.144;24.730;2022-07-29T10:47:47;149515.03;;;32.06;31.19
5877;BME280;2964;42.144;24.730;2022-07-29T10:50:13;149520.13;;;32.08;31.91
5877;BME280;2964;42.144;24.730;2022-07-29T10:52:52;149381.13;;;31.52;32.64
5877;BME280;2964;42.144;24.730;2022-07-29T10:55:35;149497.13;;;31.99;32.36
5877;BME280;2964;42.144;24.730;2022-07-29T10:58:12;149480.53;;;31.92;32.31
5877;BME280;2964;42.144;24.730;2022-07-29T11:00:39;149464.00;;;31.86;31.75
5877;BME280;2964;42.144;24.730;2022-07-29T11:03:06;149508.63;;;32.04;31.89
5877;BME280;2964;42.144;24.730;2022-07-29T11:05:53;149509.94;;;32.04;31.77
5877;BME280;2964;42.144;24.730;2022-07-29T11:08:22;149508.63;;;32.04;32.22
5877;BME280;2964;42.144;24.730;2022-07-29T11:11:15;149536.72;;;32.15;31.92
5877;BME280;2964;42.144;24.730;2022-07-29T11:13:50;149461.41;;;31.85;32.97
5877;BME280;2964;42.144;24.730;2022-07-29T11:16:19;149437.22;;;31.75;33.55
5877;BME280;2964;42.144;24.730;2022-07-29T11:19:18;149523.94;;;32.10;34.11
5877;BME280;2964;42.144;24.730;2022-07-29T11:21:46;149568.59;;;32.28;32.81
5877;BME280;2964;42.144;24.730;2022-07-29T11:24:16;149537.97;;;32.16;33.45
5877;BME280;2964;42.144;24.730;2022-07-29T11:26:45;149601.72;;;32.41;34.12
5877;BME280;2964;42.144;24.730;2022-07-29T11:29:19;149578.78;;;32.32;32.39
5877;BME280;2964;42.144;24.730;2022-07-29T11:31:49;149563.44;;;32.26;33.88
5877;BME280;2964;42.144;24.730;2022-07-29T11:34:24;149588.97;;;32.36;34.63
5877;BME280;2964;42.144;24.730;2022-07-29T11:37:20;149631.03;;;32.53;33.81
5877;BME280;2964;42.144;24.730;2022-07-29T11:40:08;149539.22;;;32.16;34.18
5877;BME280;2964;42.144;24.730;2022-07-29T11:42:43;149464.00;;;31.86;34.77
5877;BME280;2964;42.144;24.730;2022-07-29T11:45:12;149506.09;;;32.03;35.01
5877;BME280;2964;42.144;24.730;2022-07-29T11:47:42;149492.03;;;31.97;35.03
5877;BME280;2964;42.144;24.730;2022-07-29T11:50:15;149555.81;;;32.23;34.48
5877;BME280;2964;42.144;24.730;2022-07-29T11:52:44;149493.28;;;31.98;35.28
5877;BME280;2964;42.144;24.730;2022-07-29T11:55:14;149494.56;;;31.98;34.56
5877;BME280;2964;42.144;24.730;2022-07-29T11:57:49;149515.03;;;32.06;35.43
5877;BME280;2964;42.144;24.730;2022-07-29T12:00:26;149516.28;;;32.07;34.75
5877;BME280;2964;42.144;24.730;2022-07-29T12:02:53;149546.91;;;32.19;34.51
5877;BME280;2964;42.144;24.730;2022-07-29T12:05:21;149568.59;;;32.28;33.88
5877;BME280;2964;42.144;24.730;2022-07-29T12:07:48;149548.16;;;32.20;33.57
5877;BME280;2964;42.144;24.730;2022-07-29T12:10:15;149568.59;;;32.28;33.84
5877;BME280;2964;42.144;24.730;2022-07-29T12:12:42;149576.22;;;32.31;33.50
5877;BME280;2964;42.144;24.730;2022-07-29T12:15:14;149592.81;;;32.38;33.63
5877;BME280;2964;42.144;24.730;2022-07-29T12:17:43;149525.22;;;32.10;33.52
5877;BME280;2964;42.144;24.730;2022-07-29T12:20:10;149541.81;;;32.17;33.95
5877;BME280;2964;42.144;24.730;2022-07-29T12:22:40;149578.78;;;32.32;32.67
5877;BME280;2964;42.144;24.730;2022-07-29T12:25:10;149573.69;;;32.30;33.14
5877;BME280;2964;42.144;24.730;2022-07-29T12:27:39;149580.03;;;32.32;33.02
5877;BME280;2964;42.144;24.730;2022-07-29T12:30:08;149572.38;;;32.29;32.93
5877;BME280;2964;42.144;24.730;2022-07-29T12:32:39;149582.63;;;32.34;32.44
5877;BME280;2964;42.144;24.730;2022-07-29T12:35:08;149595.31;;;32.39;32.82
5877;BME280;2964;42.144;24.730;2022-07-29T12:37:36;149582.63;;;32.34;32.32
5877;BME280;2964;42.144;24.730;2022-07-29T12:40:06;149592.81;;;32.38;32.62
5877;BME280;2964;42.144;24.730;2022-07-29T12:42:33;149657.88;;;32.64;32.68
5877;BME280;2964;42.144;24.730;2022-07-29T12:45:00;149627.22;;;32.51;33.15
5877;BME280;2964;42.144;24.730;2022-07-29T12:47:28;149613.19;;;32.46;32.70
5877;BME280;2964;42.144;24.730;2022-07-29T12:50:09;149670.66;;;32.69;33.04
5877;BME280;2964;42.144;24.730;2022-07-29T12:52:36;149682.09;;;32.74;32.20
5877;BME280;2964;42.144;24.730;2022-07-29T12:55:04;149631.03;;;32.53;32.33
5877;BME280;2964;42.144;24.730;2022-07-29T12:57:32;149617.03;;;32.47;32.77
5877;BME280;2964;42.144;24.730;2022-07-29T13:00:12;149604.25;;;32.42;32.68
5877;BME280;2964;42.144;24.730;2022-07-29T13:02:40;149632.31;;;32.54;33.44
5877;BME280;2964;42.144;24.730;2022-07-29T13:05:10;149660.44;;;32.65;33.04
5877;BME280;2964;42.144;24.730;2022-07-29T13:07:41;149664.25;;;32.66;33.36
5877;BME280;2964;42.144;24.730;2022-07-29T13:10:13;149675.75;;;32.71;32.86
5877;BME280;2964;42.144;24.730;2022-07-29T13:13:02;149694.88;;;32.79;33.26
5877;BME280;2964;42.144;24.730;2022-07-29T13:15:29;149707.63;;;32.84;33.33
5877;BME280;2964;42.144;24.730;2022-07-29T13:17:56;149706.38;;;32.83;33.05
5877;BME280;2964;42.144;24.730;2022-07-29T13:20:26;149688.50;;;32.76;33.15
5877;BME280;2964;42.144;24.730;2022-07-29T13:22:54;149692.34;;;32.78;32.64
5877;BME280;2964;42.144;24.730;2022-07-29T13:25:26;149642.59;;;32.58;32.60
5877;BME280;2964;42.144;24.730;2022-07-29T13:27:54;149677.00;;;32.72;32.83
5877;BME280;2964;42.144;24.730;2022-07-29T13:30:21;149688.50;;;32.76;33.14
5877;BME280;2964;42.144;24.730;2022-07-29T13:32:48;149721.66;;;32.89;33.06
5877;BME280;2964;42.144;24.730;2022-07-29T13:35:15;149689.75;;;32.77;33.22
5877;BME280;2964;42.144;24.730;2022-07-29T13:37:44;149682.09;;;32.74;33.48
5877;BME280;2964;42.144;24.730;2022-07-29T13:40:12;149728.00;;;32.92;33.58
5877;BME280;2964;42.144;24.730;2022-07-29T13:42:39;149747.19;;;33.00;33.77
5877;BME280;2964;42.144;24.730;2022-07-29T13:45:07;149668.06;;;32.68;33.12
5877;BME280;2964;42.144;24.730;2022-07-29T13:47:34;149682.09;;;32.74;33.11
5877;BME280;2964;42.144;24.730;2022-07-29T13:50:01;149715.28;;;32.87;32.93